Temp: 4.4°C   Baro: 1017.2mb
  Wind: 0.0mph   Dir: NNW (342°)
  Rain: 0.0mm (0.0mm/hr)
  Solar: 0W/m2  Hum: 83%

Historic data

Bath Spa Weather Station Historical Data
Daily Summary for August 18, 2021 Units:  Metric    English   Both
Daily Weekly Monthly Yearly Custom
  High: Low: Average:
Temperature: 12.6 °C 6.9 °C 10.4 °C
Dew Point: 11.8 °C 6.2 °C 9.6 °C
Humidity: 94% 89.8% 92%
Wind Speed: 16.6km/h 0km/h 5.6km/h
Wind Gust: 30.6km/h - -
Wind- - West
Pressure: 1031.4 hPa 1028.7 hPa -
Precipitation: 0 mm    
Historical Graphs
 
 
Tabular Data for August 18, 2021
Time Temperature Dew Point Pressure Wind Wind Speed Wind Gust Humidity Rainfall Rate (Hourly) solar
00:04 6.9 °C 6.2 °C 1029.3 hPa WNW 1.3 km/h 4.8 km/h 92% 0 mm 0 W/m2
00:09 7 °C 6.3 °C 1029 hPa WNW 0.6 km/h 1.6 km/h 92% 0 mm 0 W/m2
00:14 7 °C 6.3 °C 1029 hPa Calm   1.6 km/h 92% 0 mm 0 W/m2
00:19 7.1 °C 6.3 °C 1029.3 hPa WNW 0.3 km/h 3.2 km/h 92% 0 mm 0 W/m2
00:24 7.1 °C 6.4 °C 1029.3 hPa Calm     92% 0 mm 0 W/m2
00:29 7.1 °C 6.4 °C 1029 hPa Calm   1.6 km/h 92% 0 mm 0 W/m2
00:34 7.1 °C 6.4 °C 1029 hPa Calm   1.6 km/h 92% 0 mm 0 W/m2
00:39 7.2 °C 6.5 °C 1029 hPa WNW 1.9 km/h 6.4 km/h 92% 0 mm 0 W/m2
00:44 7.3 °C 6.6 °C 1029 hPa WNW 2.6 km/h 6.4 km/h 92% 0 mm 0 W/m2
00:49 7.4 °C 6.7 °C 1029 hPa WNW 1.6 km/h 4.8 km/h 92% 0 mm 0 W/m2
00:54 7.6 °C 6.8 °C 1029 hPa WNW 1.1 km/h 4.8 km/h 92% 0 mm 0 W/m2
00:59 7.6 °C 6.9 °C 1029 hPa WNW 2.1 km/h 4.8 km/h 92% 0 mm 0 W/m2
01:04 7.7 °C 6.8 °C 1029 hPa WNW 2.4 km/h 4.8 km/h 91.5% 0 mm 0 W/m2
01:09 7.7 °C 6.8 °C 1029 hPa WNW 2.3 km/h 4.8 km/h 91% 0 mm 0 W/m2
01:14 7.7 °C 6.8 °C 1029 hPa Calm   3.2 km/h 91% 0 mm 0 W/m2
01:19 7.7 °C 6.8 °C 1029 hPa Calm   1.6 km/h 91% 0 mm 0 W/m2
01:24 7.7 °C 6.7 °C 1029 hPa WNW 2.1 km/h 4.8 km/h 91% 0 mm 0 W/m2
01:29 7.4 °C 6.6 °C 1029 hPa WNW 3.7 km/h 6.4 km/h 91% 0 mm 0 W/m2
01:34 7.4 °C 6.5 °C 1029 hPa WNW 4.7 km/h 6.4 km/h 91% 0 mm 0 W/m2
01:39 7.5 °C 6.6 °C 1029 hPa WNW 6 km/h 9.7 km/h 91% 0 mm 0 W/m2
01:44 7.6 °C 6.7 °C 1029 hPa WNW 5 km/h 8 km/h 91% 0 mm 0 W/m2
01:49 7.6 °C 6.7 °C 1029 hPa WNW 4.5 km/h 8 km/h 91% 0 mm 0 W/m2
01:54 7.6 °C 6.7 °C 1029 hPa WNW 5.1 km/h 9.7 km/h 90.4% 0 mm 0 W/m2
01:59 7.7 °C 6.7 °C 1029 hPa WNW 2.7 km/h 9.7 km/h 90.6% 0 mm 0 W/m2
02:04 7.7 °C 6.7 °C 1029.3 hPa WNW 2.4 km/h 8 km/h 90.4% 0 mm 0 W/m2
02:09 7.7 °C 6.7 °C 1029.3 hPa WNW 2.4 km/h 4.8 km/h 90% 0 mm 0 W/m2
02:14 7.7 °C 6.7 °C 1029.3 hPa Calm   1.6 km/h 90% 0 mm 0 W/m2
02:19 7.7 °C 6.7 °C 1029 hPa Calm   1.6 km/h 90% 0 mm 0 W/m2
02:24 7.7 °C 6.7 °C 1029 hPa Calm   1.6 km/h 90% 0 mm 0 W/m2
02:29 7.6 °C 6.6 °C 1029 hPa Calm   1.6 km/h 90% 0 mm 0 W/m2
02:34 7.6 °C 6.6 °C 1029 hPa WNW 0.6 km/h 3.2 km/h 90% 0 mm 0 W/m2
02:39 7.7 °C 6.7 °C 1029 hPa Calm   3.2 km/h 90% 0 mm 0 W/m2
02:44 7.7 °C 6.7 °C 1029 hPa WNW 1.4 km/h 4.8 km/h 90% 0 mm 0 W/m2
02:49 7.7 °C 6.7 °C 1029 hPa WNW 2.7 km/h 6.4 km/h 90% 0 mm 0 W/m2
02:54 7.8 °C 6.8 °C 1029 hPa WNW 3.4 km/h 8 km/h 90% 0 mm 0 W/m2
02:59 8.1 °C 7.1 °C 1029 hPa WNW 3.9 km/h 6.4 km/h 90% 0 mm 0 W/m2
03:04 8.2 °C 7.2 °C 1029 hPa WNW 3.4 km/h 6.4 km/h 90% 0 mm 0 W/m2
03:09 8.3 °C 7.2 °C 1029 hPa WNW 1.9 km/h 6.4 km/h 90% 0 mm 0 W/m2
03:14 8.3 °C 7.2 °C 1029 hPa WNW 1.4 km/h 3.2 km/h 90% 0 mm 0 W/m2
03:19 8.3 °C 7.2 °C 1029 hPa WNW 2.7 km/h 6.4 km/h 90% 0 mm 0 W/m2
03:24 8.2 °C 7.2 °C 1029 hPa WNW 1.9 km/h 6.4 km/h 90% 0 mm 0 W/m2
03:29 8.1 °C 7.1 °C 1028.7 hPa WNW 4 km/h 4.8 km/h 89.8% 0 mm 0 W/m2
03:34 8 °C 7 °C 1028.7 hPa WNW 3.2 km/h 6.4 km/h 90% 0 mm 0 W/m2
03:39 7.9 °C 6.9 °C 1028.7 hPa WNW 3.2 km/h 6.4 km/h 90% 0 mm 0 W/m2
03:44 7.8 °C 6.8 °C 1029 hPa WNW 3.4 km/h 4.8 km/h 90% 0 mm 0 W/m2
03:49 7.8 °C 6.8 °C 1029 hPa WNW 2.6 km/h 4.8 km/h 90% 0 mm 0 W/m2
03:54 7.7 °C 6.7 °C 1029 hPa WNW 2.6 km/h 4.8 km/h 90% 0 mm 0 W/m2
03:59 7.7 °C 6.7 °C 1028.7 hPa WNW 2.7 km/h 4.8 km/h 90% 0 mm 0 W/m2
04:04 7.6 °C 6.6 °C 1029 hPa WNW 5 km/h 8 km/h 90% 0 mm 0 W/m2
04:09 7.6 °C 6.6 °C 1029 hPa WNW 5.6 km/h 8 km/h 90% 0 mm 0 W/m2
04:14 7.7 °C 6.7 °C 1028.7 hPa WNW 6 km/h 8 km/h 90.2% 0 mm 0 W/m2
04:19 7.8 °C 6.9 °C 1028.7 hPa WNW 4.5 km/h 9.7 km/h 91% 0 mm 0 W/m2
04:24 7.8 °C 6.9 °C 1028.7 hPa WNW 2.7 km/h 8 km/h 91% 0 mm 0 W/m2
04:29 7.9 °C 7 °C 1029 hPa WNW 3.4 km/h 6.4 km/h 91% 0 mm 0 W/m2
04:34 8 °C 7.1 °C 1028.7 hPa WNW 3.9 km/h 6.4 km/h 91% 0 mm 0 W/m2
04:39 8.1 °C 7.2 °C 1028.7 hPa WNW 4.2 km/h 6.4 km/h 91% 0 mm 0 W/m2
04:44 8.2 °C 7.2 °C 1028.7 hPa WNW 4 km/h 6.4 km/h 91% 0 mm 0 W/m2
04:49 8.2 °C 7.3 °C 1028.7 hPa WNW 1.9 km/h 6.4 km/h 91% 0 mm 0 W/m2
04:54 8.2 °C 7.3 °C 1029 hPa WNW 0.3 km/h 4.8 km/h 91% 0 mm 0 W/m2
04:59 8.2 °C 7.3 °C 1029 hPa WNW 3.2 km/h 4.8 km/h 91% 0 mm 0 W/m2
05:04 8.2 °C 7.3 °C 1029 hPa WNW 4.5 km/h 8 km/h 91% 0 mm 0 W/m2
05:09 8.3 °C 7.4 °C 1029 hPa WNW 3.4 km/h 4.8 km/h 91% 0 mm 0 W/m2
05:14 8.4 °C 7.5 °C 1029 hPa WNW 4.2 km/h 8 km/h 91% 0 mm 0 W/m2
05:19 8.4 °C 7.5 °C 1029 hPa WNW 3.2 km/h 6.4 km/h 91% 0 mm 0 W/m2
05:24 8.4 °C 7.5 °C 1029 hPa WNW 2.3 km/h 4.8 km/h 91% 0 mm 0 W/m2
05:29 8.6 °C 7.7 °C 1028.7 hPa WNW 5.3 km/h 9.7 km/h 91% 0 mm 0 W/m2
05:34 8.6 °C 7.7 °C 1028.7 hPa WNW 4.5 km/h 9.7 km/h 91% 0 mm 0 W/m2
05:39 8.7 °C 7.8 °C 1029 hPa WNW 3.7 km/h 9.7 km/h 91% 0 mm 0 W/m2
05:44 8.8 °C 7.7 °C 1029 hPa WNW 2.7 km/h 4.8 km/h 90.2% 0 mm 0 W/m2
05:49 8.8 °C 7.7 °C 1029 hPa WNW 2.1 km/h 9.7 km/h 90% 0 mm 0 W/m2
05:54 8.8 °C 7.7 °C 1029 hPa WNW 2.6 km/h 4.8 km/h 90% 0 mm 0 W/m2
05:59 8.8 °C 7.8 °C 1029 hPa WNW 0.6 km/h 4.8 km/h 90% 0 mm 0 W/m2
06:04 8.9 °C 7.8 °C 1029 hPa WNW 0.8 km/h 3.2 km/h 90% 0 mm 0 W/m2
06:09 8.9 °C 7.8 °C 1029 hPa WNW 1.8 km/h 4.8 km/h 90% 0 mm 0 W/m2
06:14 8.9 °C 7.8 °C 1029 hPa WNW 2.1 km/h 3.2 km/h 90% 0 mm 0 W/m2
06:19 8.9 °C 7.8 °C 1029 hPa WNW 1.3 km/h 3.2 km/h 90% 0 mm 0 W/m2
06:24 8.9 °C 7.8 °C 1029 hPa WNW 1.4 km/h 4.8 km/h 90% 0 mm 0 W/m2
06:29 9 °C 7.9 °C 1029 hPa WNW 1.8 km/h 4.8 km/h 90% 0 mm 0 W/m2
06:33 9.1 °C 7.9 °C 1029 hPa WNW 3.2 km/h 4.8 km/h 90% 0 mm 0 W/m2
06:39 9.1 °C 8 °C 1029 hPa WNW 0.6 km/h 4.8 km/h 90% 0 mm 0 W/m2
06:44 9.1 °C 8 °C 1029 hPa WNW 1 km/h 4.8 km/h 90% 0 mm 0 W/m2
06:49 9.1 °C 8 °C 1029 hPa WNW 1.1 km/h 3.2 km/h 90% 0 mm 0 W/m2
06:54 9.1 °C 8 °C 1029.3 hPa WNW 2.6 km/h 4.8 km/h 90% 0 mm 0 W/m2
06:59 9.1 °C 8 °C 1029.3 hPa WNW 1.9 km/h 4.8 km/h 90% 0 mm 0 W/m2
07:04 9.2 °C 8.1 °C 1029.3 hPa WNW 1.8 km/h 3.2 km/h 90% 0 mm 0 W/m2
07:09 9.2 °C 8.3 °C 1029.3 hPa WNW 0.6 km/h 3.2 km/h 90.8% 0 mm 0 W/m2
07:14 9.3 °C 8.4 °C 1029.3 hPa WNW 1.9 km/h 4.8 km/h 91% 0 mm 0 W/m2
07:19 9.3 °C 8.4 °C 1029.3 hPa WNW 2.4 km/h 4.8 km/h 91% 0 mm 0 W/m2
07:24 9.3 °C 8.4 °C 1029.3 hPa WNW 3.2 km/h 4.8 km/h 91% 0 mm 0 W/m2
07:29 9.3 °C 8.4 °C 1029.3 hPa WNW 4.3 km/h 6.4 km/h 91% 0 mm 0 W/m2
07:34 9.3 °C 8.4 °C 1029.3 hPa WNW 4.3 km/h 6.4 km/h 91% 0 mm 0 W/m2
07:39 9.3 °C 8.4 °C 1029.3 hPa WNW 6.1 km/h 8 km/h 91% 0 mm 0 W/m2
07:44 9.4 °C 8.5 °C 1029.7 hPa WNW 3.1 km/h 8 km/h 91% 0 mm 0 W/m2
07:49 9.4 °C 8.5 °C 1029.7 hPa WNW 2.1 km/h 4.8 km/h 91% 0 mm 5 W/m2
07:54 9.5 °C 8.6 °C 1029.7 hPa WNW 2.3 km/h 4.8 km/h 91% 0 mm 5 W/m2
07:59 9.6 °C 8.7 °C 1030 hPa WNW 2.6 km/h 4.8 km/h 91% 0 mm 7 W/m2
08:04 9.7 °C 8.8 °C 1030 hPa WNW 3.2 km/h 6.4 km/h 91% 0 mm 11 W/m2
08:09 9.8 °C 9 °C 1030 hPa WNW 4.5 km/h 8 km/h 91.2% 0 mm 12 W/m2
08:14 9.9 °C 9.2 °C 1030 hPa WNW 6 km/h 11.3 km/h 91.8% 0 mm 18 W/m2
08:19 10 °C 9.3 °C 1030 hPa WNW 4.3 km/h 8 km/h 92% 0 mm 14 W/m2
08:24 10 °C 9.2 °C 1030.4 hPa WNW 4.7 km/h 11.3 km/h 91.4% 0 mm 16 W/m2
08:29 10 °C 9.3 °C 1030.4 hPa WNW 5.1 km/h 11.3 km/h 92% 0 mm 21 W/m2
08:34 10 °C 9.3 °C 1030.4 hPa WNW 3.2 km/h 8 km/h 92% 0 mm 19 W/m2
08:39 10.1 °C 9.3 °C 1030.4 hPa WNW 2.4 km/h 8 km/h 92% 0 mm 19 W/m2
08:44 10 °C 9.3 °C 1030.4 hPa WNW 2.9 km/h 6.4 km/h 92% 0 mm 16 W/m2
08:49 10 °C 9.3 °C 1030.4 hPa WNW 1.4 km/h 4.8 km/h 92% 0 mm 16 W/m2
08:54 10 °C 9.3 °C 1030.4 hPa WNW 2.9 km/h 8 km/h 92% 0 mm 14 W/m2
08:59 9.9 °C 9.2 °C 1030.4 hPa WNW 4.7 km/h 8 km/h 92% 0 mm 14 W/m2
09:04 9.9 °C 9.2 °C 1030.4 hPa WNW 4.7 km/h 9.7 km/h 92% 0 mm 12 W/m2
09:09 9.9 °C 9.2 °C 1030.4 hPa WNW 6 km/h 11.3 km/h 92% 0 mm 16 W/m2
09:14 9.9 °C 9.2 °C 1030.4 hPa WNW 3.5 km/h 11.3 km/h 92% 0 mm 14 W/m2
09:19 9.9 °C 9.2 °C 1030.4 hPa WNW 3.7 km/h 8 km/h 92% 0 mm 14 W/m2
09:24 9.9 °C 9.3 °C 1030.4 hPa WNW 3.1 km/h 9.7 km/h 92% 0 mm 18 W/m2
09:29 10 °C 9.3 °C 1030 hPa WNW 4.5 km/h 6.4 km/h 92% 0 mm 30 W/m2
09:34 10 °C 9.3 °C 1030 hPa WNW 4.8 km/h 11.3 km/h 92% 0 mm 40 W/m2
09:39 10.1 °C 9.4 °C 1030.4 hPa WNW 5.1 km/h 9.7 km/h 92% 0 mm 54 W/m2
09:44 10.2 °C 9.4 °C 1030.4 hPa WNW 6.9 km/h 11.3 km/h 92% 0 mm 67 W/m2
09:49 10.2 °C 9.5 °C 1030.4 hPa WNW 6.9 km/h 12.9 km/h 92% 0 mm 53 W/m2
09:54 10.2 °C 9.5 °C 1030.4 hPa WNW 2.6 km/h 8 km/h 92% 0 mm 67 W/m2
09:59 10.3 °C 9.6 °C 1030.4 hPa WNW 3.2 km/h 8 km/h 92% 0 mm 69 W/m2
10:04 10.3 °C 9.6 °C 1030.7 hPa WNW 7.1 km/h 11.3 km/h 92% 0 mm 56 W/m2
10:09 10.4 °C 9.8 °C 1030.7 hPa WNW 4.2 km/h 11.3 km/h 92.6% 0 mm 51 W/m2
10:14 10.4 °C 9.8 °C 1030.7 hPa WNW 4 km/h 8 km/h 93% 0 mm 58 W/m2
10:19 10.5 °C 9.9 °C 1030.7 hPa WNW 5 km/h 9.7 km/h 93% 0 mm 70 W/m2
10:24 10.6 °C 9.9 °C 1030.7 hPa WNW 2.1 km/h 6.4 km/h 92.6% 0 mm 83 W/m2
10:29 10.6 °C 9.9 °C 1030.7 hPa WNW 5.1 km/h 9.7 km/h 92.6% 0 mm 83 W/m2
10:34 10.7 °C 9.9 °C 1030.7 hPa WNW 3.4 km/h 8 km/h 92.2% 0 mm 76 W/m2
10:39 10.7 °C 10 °C 1030.7 hPa WNW 7.2 km/h 12.9 km/h 92.4% 0 mm 105 W/m2
10:44 10.8 °C 10.2 °C 1030.7 hPa WNW 5.8 km/h 11.3 km/h 93% 0 mm 130 W/m2
10:49 10.9 °C 10.3 °C 1030.4 hPa WNW 8.2 km/h 12.9 km/h 93% 0 mm 83 W/m2
10:54 10.9 °C 10.3 °C 1030.7 hPa WNW 7.6 km/h 12.9 km/h 93% 0 mm 72 W/m2
10:59 10.9 °C 10.3 °C 1030.7 hPa WNW 5.3 km/h 8 km/h 93% 0 mm 51 W/m2
11:04 11 °C 10.4 °C 1030.7 hPa WNW 5.3 km/h 9.7 km/h 93% 0 mm 49 W/m2
11:09 11 °C 10.4 °C 1030.7 hPa WNW 5.8 km/h 11.3 km/h 93% 0 mm 42 W/m2
11:14 11 °C 10.4 °C 1030.7 hPa WNW 5.8 km/h 8 km/h 93% 0 mm 35 W/m2
11:18 11.1 °C 10.4 °C 1030.7 hPa WNW 6.4 km/h 9.7 km/h 93% 0 mm 46 W/m2
11:24 11.1 °C 10.5 °C 1030.7 hPa WNW 7.2 km/h 11.3 km/h 93% 0 mm 65 W/m2
11:29 11.1 °C 10.5 °C 1030.7 hPa WNW 6 km/h 9.7 km/h 93% 0 mm 70 W/m2
11:34 11.1 °C 10.5 °C 1030.7 hPa WNW 5.1 km/h 11.3 km/h 93% 0 mm 81 W/m2
11:39 11.2 °C 10.6 °C 1030.7 hPa WNW 7.7 km/h 12.9 km/h 93% 0 mm 95 W/m2
11:44 11.2 °C 10.6 °C 1030.7 hPa WNW 8.4 km/h 12.9 km/h 93% 0 mm 97 W/m2
11:49 11.3 °C 10.7 °C 1030.7 hPa WNW 8.4 km/h 16.1 km/h 93% 0 mm 88 W/m2
11:54 11.3 °C 10.7 °C 1030.7 hPa WNW 6 km/h 16.1 km/h 93% 0 mm 113 W/m2
11:59 11.3 °C 10.7 °C 1030.7 hPa WNW 6.9 km/h 11.3 km/h 93% 0 mm 127 W/m2
12:04 11.3 °C 10.7 °C 1030.7 hPa WNW 10.6 km/h 19.3 km/h 93% 0 mm 91 W/m2
12:09 11.3 °C 10.7 °C 1030.4 hPa WNW 9 km/h 17.7 km/h 93% 0 mm 146 W/m2
12:14 11.3 °C 10.9 °C 1030.4 hPa WNW 6 km/h 17.7 km/h 93.6% 0 mm 156 W/m2
12:19 11.4 °C 11 °C 1030.7 hPa WNW 7.2 km/h 16.1 km/h 94% 0 mm 174 W/m2
12:24 11.6 °C 11.2 °C 1030.4 hPa WNW 9 km/h 17.7 km/h 94% 0 mm 178 W/m2
12:29 11.6 °C 11.2 °C 1030.4 hPa West 7.4 km/h 17.7 km/h 94% 0 mm 155 W/m2
12:34 11.6 °C 11.2 °C 1030.4 hPa West 9.2 km/h 19.3 km/h 94% 0 mm 172 W/m2
12:39 11.7 °C 11.3 °C 1030.4 hPa West 6 km/h 17.7 km/h 94% 0 mm 125 W/m2
12:44 11.7 °C 11.3 °C 1030.4 hPa West 7.2 km/h 11.3 km/h 94% 0 mm 121 W/m2
12:49 11.8 °C 11.4 °C 1030.4 hPa West 6.8 km/h 17.7 km/h 94% 0 mm 123 W/m2
12:54 11.8 °C 11.4 °C 1030.4 hPa West 10.3 km/h 22.5 km/h 94% 0 mm 114 W/m2
12:59 11.8 °C 11.4 °C 1030.4 hPa West 10.8 km/h 16.1 km/h 94% 0 mm 81 W/m2
13:04 11.8 °C 11.4 °C 1030.4 hPa West 9.7 km/h 14.5 km/h 94% 0 mm 104 W/m2
13:09 11.8 °C 11.4 °C 1030.4 hPa West 8.5 km/h 16.1 km/h 94% 0 mm 104 W/m2
13:14 11.8 °C 11.4 °C 1030.4 hPa West 9 km/h 17.7 km/h 94% 0 mm 83 W/m2
13:19 11.8 °C 11.4 °C 1030.4 hPa WNW 9.3 km/h 16.1 km/h 94% 0 mm 84 W/m2
13:24 11.9 °C 11.5 °C 1030 hPa West 10.3 km/h 16.1 km/h 94% 0 mm 95 W/m2
13:29 11.9 °C 11.6 °C 1030.4 hPa West 10.6 km/h 17.7 km/h 94% 0 mm 76 W/m2
13:34 12.1 °C 11.7 °C 1030 hPa West 8.2 km/h 17.7 km/h 94% 0 mm 76 W/m2
13:39 12.1 °C 11.7 °C 1030 hPa West 10.6 km/h 17.7 km/h 94% 0 mm 67 W/m2
13:44 12.1 °C 11.7 °C 1030 hPa West 7.1 km/h 17.7 km/h 94% 0 mm 69 W/m2
13:49 12.2 °C 11.8 °C 1030 hPa WNW 13.5 km/h 24.1 km/h 94% 0 mm 102 W/m2
13:54 12.2 °C 11.8 °C 1030 hPa NW 10.8 km/h 24.1 km/h 94% 0 mm 93 W/m2
13:59 12.3 °C 11.8 °C 1030 hPa West 11.3 km/h 19.3 km/h 93.8% 0 mm 111 W/m2
14:04 12.3 °C 11.7 °C 1030 hPa WNW 14.2 km/h 24.1 km/h 93% 0 mm 107 W/m2
14:09 12.3 °C 11.7 °C 1030 hPa West 16.6 km/h 25.7 km/h 93% 0 mm 109 W/m2
14:14 12.3 °C 11.6 °C 1030 hPa WNW 11.4 km/h 25.7 km/h 92.2% 0 mm 105 W/m2
14:19 12.4 °C 11.6 °C 1030 hPa WNW 6.8 km/h 20.9 km/h 92% 0 mm 167 W/m2
14:24 12.5 °C 11.7 °C 1030 hPa WNW 11.3 km/h 22.5 km/h 92% 0 mm 199 W/m2
14:29 12.6 °C 11.8 °C 1030 hPa West 10.6 km/h 22.5 km/h 92% 0 mm 146 W/m2
14:34 12.6 °C 11.7 °C 1029.7 hPa WNW 14.5 km/h 30.6 km/h 91% 0 mm 93 W/m2
14:39 12.6 °C 11.7 °C 1029.7 hPa WNW 10 km/h 19.3 km/h 91% 0 mm 77 W/m2
14:44 12.6 °C 11.7 °C 1030 hPa WNW 8.9 km/h 20.9 km/h 91% 0 mm 70 W/m2
14:49 12.5 °C 11.6 °C 1030 hPa WNW 10.3 km/h 19.3 km/h 91% 0 mm 67 W/m2
14:54 12.5 °C 11.5 °C 1030 hPa West 11.6 km/h 20.9 km/h 90.6% 0 mm 58 W/m2
14:59 12.4 °C 11.4 °C 1030 hPa West 9.3 km/h 20.9 km/h 90.4% 0 mm 63 W/m2
15:04 12.4 °C 11.4 °C 1030 hPa West 6.9 km/h 14.5 km/h 90.4% 0 mm 65 W/m2
15:09 12.4 °C 11.3 °C 1030 hPa West 7.4 km/h 14.5 km/h 90% 0 mm 118 W/m2
15:14 12.5 °C 11.4 °C 1030 hPa West 10 km/h 20.9 km/h 90% 0 mm 113 W/m2
15:19 12.5 °C 11.4 °C 1030 hPa WNW 8.4 km/h 16.1 km/h 90% 0 mm 70 W/m2
15:24 12.4 °C 11.3 °C 1030 hPa WNW 10 km/h 19.3 km/h 90% 0 mm 58 W/m2
15:29 12.3 °C 11.3 °C 1030 hPa West 10.8 km/h 25.7 km/h 90% 0 mm 54 W/m2
15:34 12.3 °C 11.2 °C 1030 hPa WNW 11.3 km/h 20.9 km/h 90% 0 mm 46 W/m2
15:39 12.2 °C 11.2 °C 1030 hPa West 9.2 km/h 27.4 km/h 90% 0 mm 53 W/m2
15:44 12.2 °C 11.1 °C 1030 hPa West 8.2 km/h 14.5 km/h 89.8% 0 mm 56 W/m2
15:49 12.2 °C 11.1 °C 1029.7 hPa West 8.7 km/h 16.1 km/h 90% 0 mm 35 W/m2
15:54 12.2 °C 11.1 °C 1029.7 hPa WNW 10.9 km/h 22.5 km/h 90% 0 mm 26 W/m2
15:59 12.1 °C 10.9 °C 1029.7 hPa West 13.2 km/h 24.1 km/h 90% 0 mm 19 W/m2
16:04 12 °C 10.9 °C 1029.7 hPa WNW 9.2 km/h 17.7 km/h 90% 0 mm 19 W/m2
16:09 12 °C 10.9 °C 1029.7 hPa WNW 6.1 km/h 14.5 km/h 90% 0 mm 12 W/m2
16:14 11.9 °C 10.8 °C 1030 hPa WNW 7.6 km/h 16.1 km/h 90% 0 mm 7 W/m2
16:19 11.9 °C 10.8 °C 1030 hPa WNW 10.5 km/h 17.7 km/h 90% 0 mm 5 W/m2
16:24 11.9 °C 10.8 °C 1030 hPa WNW 11.3 km/h 19.3 km/h 90% 0 mm 0 W/m2
16:29 11.9 °C 10.8 °C 1030 hPa WNW 9 km/h 17.7 km/h 90% 0 mm 0 W/m2
16:34 11.9 °C 10.8 °C 1030 hPa WNW 8.7 km/h 16.1 km/h 90% 0 mm 0 W/m2
16:39 11.9 °C 10.9 °C 1030 hPa WNW 9 km/h 20.9 km/h 90.4% 0 mm 0 W/m2
16:44 11.9 °C 11 °C 1030 hPa WNW 6.9 km/h 17.7 km/h 91% 0 mm 0 W/m2
16:49 11.9 °C 11 °C 1030 hPa WNW 8.4 km/h 14.5 km/h 91% 0 mm 0 W/m2
16:54 11.9 °C 11 °C 1030 hPa WNW 10.9 km/h 14.5 km/h 91% 0 mm 0 W/m2
16:59 11.9 °C 11 °C 1030 hPa WNW 11.1 km/h 19.3 km/h 91% 0 mm 0 W/m2
17:04 11.9 °C 11 °C 1030 hPa WNW 10 km/h 16.1 km/h 91% 0 mm 0 W/m2
17:08 11.9 °C 11 °C 1030 hPa WNW 9.7 km/h 19.3 km/h 91% 0 mm 0 W/m2
17:14 12 °C 11.1 °C 1030 hPa WNW 5.6 km/h 14.5 km/h 91% 0 mm 0 W/m2
17:19 11.9 °C 11 °C 1030 hPa WNW 7.4 km/h 12.9 km/h 91% 0 mm 0 W/m2
17:24 11.9 °C 11 °C 1030 hPa WNW 6.1 km/h 12.9 km/h 91% 0 mm 0 W/m2
17:29 11.9 °C 11 °C 1030 hPa West 10.8 km/h 16.1 km/h 91% 0 mm 0 W/m2
17:34 11.9 °C 11 °C 1030 hPa West 8.4 km/h 12.9 km/h 91% 0 mm 0 W/m2
17:39 11.9 °C 11 °C 1030 hPa West 7.7 km/h 12.9 km/h 91% 0 mm 0 W/m2
17:44 11.9 °C 11 °C 1030 hPa West 8 km/h 12.9 km/h 91% 0 mm 0 W/m2
17:49 11.9 °C 11 °C 1030 hPa West 7.2 km/h 17.7 km/h 91.2% 0 mm 0 W/m2
17:54 11.8 °C 11 °C 1030 hPa West 7.2 km/h 14.5 km/h 91.8% 0 mm 0 W/m2
17:59 11.8 °C 10.9 °C 1030 hPa West 6 km/h 12.9 km/h 91.2% 0 mm 0 W/m2
18:04 11.8 °C 10.9 °C 1030 hPa West 7.7 km/h 16.1 km/h 91% 0 mm 0 W/m2
18:09 11.8 °C 10.9 °C 1030.4 hPa West 8.2 km/h 16.1 km/h 91% 0 mm 0 W/m2
18:14 11.8 °C 10.9 °C 1030.4 hPa West 6.1 km/h 12.9 km/h 91.6% 0 mm 0 W/m2
18:19 11.8 °C 10.9 °C 1030.4 hPa West 9.7 km/h 14.5 km/h 91.2% 0 mm 0 W/m2
18:24 11.8 °C 10.9 °C 1030.4 hPa West 6.8 km/h 12.9 km/h 91.2% 0 mm 0 W/m2
18:29 11.8 °C 10.9 °C 1030.4 hPa West 3.9 km/h 12.9 km/h 91.4% 0 mm 0 W/m2
18:34 11.8 °C 10.9 °C 1030.4 hPa West 6.9 km/h 14.5 km/h 91% 0 mm 0 W/m2
18:39 11.7 °C 10.8 °C 1030.4 hPa West 5.1 km/h 12.9 km/h 91% 0 mm 0 W/m2
18:44 11.7 °C 10.8 °C 1030.7 hPa West 8.5 km/h 11.3 km/h 91% 0 mm 0 W/m2
18:49 11.7 °C 10.8 °C 1030.7 hPa WSW 8.7 km/h 16.1 km/h 91% 0 mm 0 W/m2
18:54 11.7 °C 10.8 °C 1030.7 hPa West 5.3 km/h 12.9 km/h 91% 0 mm 0 W/m2
18:59 11.7 °C 10.8 °C 1030.7 hPa West 5.3 km/h 11.3 km/h 91% 0 mm 0 W/m2
19:04 11.7 °C 10.8 °C 1030.7 hPa West 5 km/h 12.9 km/h 91% 0 mm 0 W/m2
19:09 11.7 °C 10.8 °C 1030.7 hPa West 5.8 km/h 9.7 km/h 91% 0 mm 0 W/m2
19:14 11.7 °C 10.8 °C 1030.7 hPa West 6 km/h 11.3 km/h 91% 0 mm 0 W/m2
19:19 11.7 °C 10.8 °C 1030.7 hPa West 6 km/h 12.9 km/h 91% 0 mm 0 W/m2
19:24 11.7 °C 10.8 °C 1030.7 hPa West 8 km/h 14.5 km/h 91% 0 mm 0 W/m2
19:29 11.7 °C 10.8 °C 1030.4 hPa West 6.9 km/h 14.5 km/h 91% 0 mm 0 W/m2
19:34 11.7 °C 10.8 °C 1030.7 hPa West 7.4 km/h 14.5 km/h 91% 0 mm 0 W/m2
19:39 11.7 °C 10.8 °C 1030.7 hPa West 6.4 km/h 14.5 km/h 91% 0 mm 0 W/m2
19:44 11.7 °C 10.8 °C 1030.7 hPa West 5.6 km/h 14.5 km/h 91% 0 mm 0 W/m2
19:49 11.7 °C 10.8 °C 1030.7 hPa West 6.8 km/h 14.5 km/h 91% 0 mm 0 W/m2
19:54 11.7 °C 10.8 °C 1030.7 hPa West 4.5 km/h 12.9 km/h 91% 0 mm 0 W/m2
19:59 11.7 °C 10.8 °C 1030.7 hPa West 7.4 km/h 16.1 km/h 91% 0 mm 0 W/m2
20:04 11.7 °C 10.7 °C 1030.4 hPa West 6.9 km/h 16.1 km/h 91% 0 mm 0 W/m2
20:08 11.6 °C 10.7 °C 1030.7 hPa West 6.4 km/h 11.3 km/h 91% 0 mm 0 W/m2
20:14 11.6 °C 10.7 °C 1030.7 hPa West 6.6 km/h 14.5 km/h 91% 0 mm 0 W/m2
20:19 11.7 °C 10.7 °C 1031 hPa West 5 km/h 9.7 km/h 91% 0 mm 0 W/m2
20:24 11.6 °C 10.7 °C 1030.7 hPa West 5.6 km/h 11.3 km/h 91% 0 mm 0 W/m2
20:29 11.6 °C 10.7 °C 1031 hPa West 4.7 km/h 9.7 km/h 91% 0 mm 0 W/m2
20:34 11.6 °C 10.7 °C 1031 hPa West 5.3 km/h 11.3 km/h 91% 0 mm 0 W/m2
20:39 11.6 °C 10.8 °C 1031 hPa West 5 km/h 9.7 km/h 92% 0 mm 0 W/m2
20:44 11.6 °C 10.8 °C 1031 hPa West 3.9 km/h 11.3 km/h 92% 0 mm 0 W/m2
20:49 11.6 °C 10.8 °C 1031 hPa West 4.5 km/h 9.7 km/h 92% 0 mm 0 W/m2
20:54 11.6 °C 10.8 °C 1031 hPa West 3.2 km/h 8 km/h 92% 0 mm 0 W/m2
20:59 11.6 °C 10.8 °C 1031 hPa West 5.6 km/h 11.3 km/h 92% 0 mm 0 W/m2
21:04 11.6 °C 10.8 °C 1031 hPa West 7.9 km/h 12.9 km/h 92% 0 mm 0 W/m2
21:09 11.6 °C 10.8 °C 1031 hPa West 8.7 km/h 16.1 km/h 92% 0 mm 0 W/m2
21:14 11.6 °C 10.8 °C 1031 hPa West 6.6 km/h 14.5 km/h 92% 0 mm 0 W/m2
21:19 11.6 °C 10.8 °C 1031 hPa West 6.4 km/h 14.5 km/h 92% 0 mm 0 W/m2
21:24 11.6 °C 10.8 °C 1031 hPa West 7.1 km/h 12.9 km/h 92% 0 mm 0 W/m2
21:29 11.6 °C 10.8 °C 1031 hPa West 11.1 km/h 16.1 km/h 92% 0 mm 0 W/m2
21:34 11.6 °C 10.8 °C 1031 hPa West 8.7 km/h 14.5 km/h 92% 0 mm 0 W/m2
21:39 11.6 °C 10.8 °C 1031 hPa West 6.6 km/h 14.5 km/h 92% 0 mm 0 W/m2
21:44 11.6 °C 10.8 °C 1031 hPa West 6.9 km/h 14.5 km/h 92% 0 mm 0 W/m2
21:49 11.6 °C 10.8 °C 1031 hPa West 5.1 km/h 11.3 km/h 92% 0 mm 0 W/m2
21:54 11.6 °C 10.8 °C 1031 hPa West 10.9 km/h 12.9 km/h 92% 0 mm 0 W/m2
21:59 11.6 °C 10.8 °C 1031 hPa West 7.6 km/h 14.5 km/h 92% 0 mm 0 W/m2
22:04 11.6 °C 10.8 °C 1031 hPa West 7.1 km/h 14.5 km/h 92% 0 mm 0 W/m2
22:09 11.5 °C 10.7 °C 1031 hPa West 6.6 km/h 12.9 km/h 92% 0 mm 0 W/m2
22:14 11.5 °C 10.7 °C 1031 hPa West 6.4 km/h 14.5 km/h 92% 0 mm 0 W/m2
22:19 11.6 °C 10.8 °C 1031 hPa West 7.7 km/h 14.5 km/h 92% 0 mm 0 W/m2
22:24 11.5 °C 10.7 °C 1031 hPa West 8.7 km/h 12.9 km/h 92% 0 mm 0 W/m2
22:29 11.5 °C 10.7 °C 1031 hPa West 7.9 km/h 14.5 km/h 92% 0 mm 0 W/m2
22:34 11.5 °C 10.7 °C 1031 hPa West 5.8 km/h 11.3 km/h 92% 0 mm 0 W/m2
22:39 11.5 °C 10.7 °C 1031 hPa West 7.7 km/h 14.5 km/h 92% 0 mm 0 W/m2
22:44 11.5 °C 10.7 °C 1031 hPa West 6.3 km/h 12.9 km/h 92% 0 mm 0 W/m2
22:49 11.5 °C 10.7 °C 1031 hPa West 4.8 km/h 12.9 km/h 92% 0 mm 0 W/m2
22:54 11.5 °C 10.7 °C 1031 hPa West 6.3 km/h 12.9 km/h 92% 0 mm 0 W/m2
22:59 11.5 °C 10.7 °C 1031 hPa West 7.7 km/h 16.1 km/h 92% 0 mm 0 W/m2
23:04 11.5 °C 10.7 °C 1031 hPa West 6 km/h 16.1 km/h 92% 0 mm 0 W/m2
23:09 11.5 °C 10.7 °C 1031 hPa West 5.1 km/h 11.3 km/h 92% 0 mm 0 W/m2
23:14 11.5 °C 10.7 °C 1031 hPa West 6 km/h 11.3 km/h 92% 0 mm 0 W/m2
23:19 11.5 °C 10.7 °C 1031 hPa West 7.2 km/h 9.7 km/h 92% 0 mm 0 W/m2
23:24 11.5 °C 10.7 °C 1031 hPa West 4.5 km/h 12.9 km/h 92% 0 mm 0 W/m2
23:29 11.5 °C 10.7 °C 1031 hPa West 4.7 km/h 9.7 km/h 92% 0 mm 0 W/m2
23:34 11.5 °C 10.7 °C 1031 hPa West 5.1 km/h 9.7 km/h 92% 0 mm 0 W/m2
23:39 11.5 °C 10.7 °C 1031 hPa West 6.4 km/h 14.5 km/h 92% 0 mm 0 W/m2
23:44 11.5 °C 10.7 °C 1031.4 hPa West 5.8 km/h 14.5 km/h 92% 0 mm 0 W/m2
23:49 11.5 °C 10.7 °C 1031.4 hPa West 6.8 km/h 12.9 km/h 92% 0 mm 0 W/m2
23:54 11.5 °C 10.7 °C 1031 hPa West 5.3 km/h 14.5 km/h 91.6% 0 mm 0 W/m2
23:59 11.5 °C 10.6 °C 1031 hPa West 7.7 km/h 16.1 km/h 91% 0 mm 0 W/m2
Bath Spa Weather
Compliments of Weather Underground - 2 mb